Terminal Aerodrome Forecast
Issued by NWS Jacksonville, FL

Home | Current Version | Previous Version | Text Only | Print | Product List | Glossary On
Versions: 1 2 3 4 5 6 7 8 9 10 11 12 13 14 15 16 17 18 19 20 21 22 23
000
FTUS42 KJAX 301123
TAFGNV
TAF
KGNV 301123Z 3012/3112 32006KT P6SM SCT030 BKN250
     FM301900 34008KT P6SM VCTS BKN045CB
      TEMPO 3021/3024 4SM TSRA BR BKN040CB
     FM310200 VRB03KT P6SM SCT035 BKN120=

USA.gov is the U.S. government's official web portal to all federal, state and local government web resources and services.